createdAt,value
2018-09-21T00:00:10.164Z,0.00
2018-09-21T00:01:10.103Z,0.00
2018-09-21T00:02:10.041Z,0.00
2018-09-21T00:03:09.985Z,0.00
2018-09-21T00:04:09.920Z,0.00
2018-09-21T00:05:09.861Z,0.00
2018-09-21T00:06:09.802Z,0.00
2018-09-21T00:07:09.741Z,0.00
2018-09-21T00:08:09.681Z,0.00
2018-09-21T00:09:09.622Z,0.00
2018-09-21T00:10:09.561Z,0.00
2018-09-21T00:11:09.503Z,0.00
2018-09-21T00:12:09.440Z,0.00
2018-09-21T00:13:09.381Z,0.00
2018-09-21T00:14:09.322Z,0.00
2018-09-21T00:15:09.264Z,0.00
2018-09-21T00:16:09.201Z,0.00
2018-09-21T00:17:09.141Z,0.00
2018-09-21T00:18:09.084Z,0.00
2018-09-21T00:19:09.021Z,0.00
2018-09-21T00:20:08.962Z,0.00
2018-09-21T00:21:08.902Z,0.00
2018-09-21T00:22:08.843Z,0.00
2018-09-21T00:23:08.783Z,0.00
2018-09-21T00:24:08.720Z,0.00
2018-09-21T00:25:08.665Z,0.00
2018-09-21T00:26:08.601Z,0.00
2018-09-21T00:27:08.544Z,0.00
2018-09-21T00:28:08.483Z,0.00
2018-09-21T00:29:08.420Z,0.00
2018-09-21T00:30:08.364Z,0.00
2018-09-21T00:31:08.303Z,0.00
2018-09-21T00:32:08.242Z,0.00
2018-09-21T00:33:08.182Z,0.00
2018-09-21T00:34:08.122Z,0.00
2018-09-21T00:35:08.061Z,0.00
2018-09-21T00:36:08.003Z,0.00
2018-09-21T00:37:07.940Z,0.00
2018-09-21T00:38:07.883Z,0.00
2018-09-21T00:39:07.823Z,0.00
2018-09-21T00:40:07.760Z,0.00
2018-09-21T00:41:07.701Z,0.00
2018-09-21T00:42:07.641Z,0.00
2018-09-21T00:43:07.582Z,0.00
2018-09-21T00:44:07.523Z,0.00
2018-09-21T00:45:07.462Z,0.00
2018-09-21T00:46:07.401Z,0.00
2018-09-21T00:47:07.342Z,0.00
2018-09-21T00:48:07.279Z,0.00
2018-09-21T00:49:07.226Z,0.00
2018-09-21T00:50:07.158Z,0.00
2018-09-21T00:51:07.100Z,0.00
2018-09-21T00:52:07.042Z,0.00
2018-09-21T00:53:06.982Z,0.00
2018-09-21T00:54:06.917Z,0.00
2018-09-21T00:55:06.859Z,0.00
2018-09-21T00:56:06.805Z,0.00
2018-09-21T00:57:06.740Z,0.00
2018-09-21T00:58:06.682Z,0.00
2018-09-21T00:59:06.619Z,0.00
2018-09-21T01:00:06.557Z,0.00
2018-09-21T01:01:06.498Z,0.00
2018-09-21T01:02:06.439Z,0.00
2018-09-21T01:03:06.380Z,0.00
2018-09-21T01:04:06.317Z,0.00
2018-09-21T01:05:06.257Z,0.00
2018-09-21T01:06:06.199Z,0.00
2018-09-21T01:07:06.138Z,0.00
2018-09-21T01:08:06.077Z,0.00
2018-09-21T01:09:06.018Z,0.00
2018-09-21T01:10:05.956Z,0.00
2018-09-21T01:11:05.897Z,0.00
2018-09-21T01:12:05.837Z,0.00
2018-09-21T01:13:05.779Z,0.00
2018-09-21T01:14:05.717Z,0.00
2018-09-21T01:15:05.657Z,0.00
2018-09-21T01:16:05.596Z,0.00
2018-09-21T01:17:05.535Z,0.00
2018-09-21T01:18:05.475Z,0.00
2018-09-21T01:19:05.415Z,0.00
2018-09-21T01:20:05.354Z,0.00
2018-09-21T01:21:05.300Z,0.00
2018-09-21T01:22:05.236Z,0.00
2018-09-21T01:23:05.175Z,0.00
2018-09-21T01:24:05.110Z,0.00
2018-09-21T01:25:05.053Z,0.00
2018-09-21T01:26:04.990Z,0.00
2018-09-21T01:27:04.933Z,0.00
2018-09-21T01:28:04.875Z,0.00
2018-09-21T01:29:04.811Z,0.00
2018-09-21T01:30:04.749Z,0.00
2018-09-21T01:31:04.692Z,0.00
2018-09-21T01:32:04.631Z,0.00
2018-09-21T01:33:04.572Z,0.00
2018-09-21T01:34:04.510Z,0.00
2018-09-21T01:35:04.454Z,0.00
2018-09-21T01:36:04.389Z,0.00
2018-09-21T01:37:04.329Z,0.00
2018-09-21T01:38:04.270Z,0.00
2018-09-21T01:39:04.209Z,0.00
2018-09-21T01:40:04.149Z,0.00
2018-09-21T01:41:04.088Z,0.00
2018-09-21T01:42:04.028Z,0.00
2018-09-21T01:43:03.968Z,0.00
2018-09-21T01:44:03.909Z,0.00
2018-09-21T01:45:03.846Z,0.00
2018-09-21T01:46:03.787Z,0.00
2018-09-21T01:47:03.726Z,0.00
2018-09-21T01:48:03.668Z,0.00
2018-09-21T01:49:03.607Z,0.00
2018-09-21T01:50:03.545Z,0.00
2018-09-21T01:51:03.489Z,0.00
2018-09-21T01:52:03.423Z,0.00
2018-09-21T01:53:03.363Z,0.00
2018-09-21T01:54:03.302Z,0.00
2018-09-21T01:55:03.241Z,0.00
2018-09-21T01:56:03.181Z,0.00
2018-09-21T01:57:03.122Z,0.00
2018-09-21T01:58:03.060Z,0.00
2018-09-21T01:59:03.000Z,0.00
2018-09-21T02:00:02.938Z,0.00
2018-09-21T02:01:02.878Z,0.00
2018-09-21T02:02:02.819Z,0.00
2018-09-21T02:03:02.758Z,0.00
2018-09-21T02:04:02.697Z,0.00
2018-09-21T02:05:02.639Z,0.00
2018-09-21T02:06:02.578Z,0.00
2018-09-21T02:07:02.518Z,0.00
2018-09-21T02:08:02.455Z,0.00
2018-09-21T02:09:02.393Z,0.00
2018-09-21T02:10:02.335Z,0.00
2018-09-21T02:11:02.275Z,0.00
2018-09-21T02:12:02.214Z,0.00
2018-09-21T02:13:02.156Z,0.00
2018-09-21T02:14:02.093Z,0.00
2018-09-21T02:15:02.032Z,0.00
2018-09-21T02:16:01.969Z,0.00
2018-09-21T02:17:01.910Z,0.00
2018-09-21T02:18:01.850Z,0.00
2018-09-21T02:19:01.791Z,0.00
2018-09-21T02:20:01.728Z,0.00
2018-09-21T02:21:01.666Z,0.00
2018-09-21T02:22:01.608Z,0.00
2018-09-21T02:23:01.546Z,0.00
2018-09-21T02:24:01.491Z,0.00
2018-09-21T02:25:01.425Z,0.00
2018-09-21T02:26:01.364Z,0.00
2018-09-21T02:27:01.306Z,0.00
2018-09-21T02:28:01.245Z,0.00
2018-09-21T02:29:01.181Z,0.00
2018-09-21T02:30:01.133Z,0.00
2018-09-21T02:31:01.061Z,0.00
2018-09-21T02:32:01.002Z,0.00
2018-09-21T02:33:00.942Z,0.00
2018-09-21T02:34:00.879Z,0.00
2018-09-21T02:35:00.819Z,0.00
2018-09-21T02:36:00.754Z,0.00
2018-09-21T02:37:00.699Z,0.00
2018-09-21T02:38:00.642Z,0.00
2018-09-21T02:39:00.573Z,0.00
2018-09-21T02:40:00.515Z,0.00
2018-09-21T02:41:00.456Z,0.00
2018-09-21T02:42:00.394Z,0.00
2018-09-21T02:43:00.331Z,0.00
2018-09-21T02:44:00.271Z,0.00
2018-09-21T02:45:00.210Z,0.00
2018-09-21T02:46:00.150Z,0.00
2018-09-21T02:47:00.091Z,0.00
2018-09-21T02:48:00.029Z,0.00
2018-09-21T02:48:59.971Z,0.00
2018-09-21T02:49:59.911Z,0.00
2018-09-21T02:50:59.847Z,0.00
2018-09-21T02:51:59.787Z,0.00
2018-09-21T02:52:59.727Z,0.00
2018-09-21T02:53:59.665Z,0.00
2018-09-21T02:54:59.604Z,0.00
2018-09-21T02:55:59.542Z,0.00
2018-09-21T02:56:59.481Z,0.00
2018-09-21T02:57:59.423Z,0.00
2018-09-21T02:58:59.361Z,0.00
2018-09-21T02:59:59.299Z,0.00
2018-09-21T03:00:59.379Z,0.00
2018-09-21T03:01:59.179Z,0.00
2018-09-21T03:02:59.118Z,0.00
2018-09-21T03:03:59.056Z,0.00
2018-09-21T03:04:58.994Z,0.00
2018-09-21T03:05:58.942Z,0.00
2018-09-21T03:06:58.879Z,0.00
2018-09-21T03:07:58.813Z,0.00
2018-09-21T03:08:58.751Z,0.00
2018-09-21T03:09:58.693Z,0.00
2018-09-21T03:10:58.631Z,0.00
2018-09-21T03:11:58.570Z,0.00
2018-09-21T03:12:58.511Z,0.00
2018-09-21T03:13:58.453Z,0.00
2018-09-21T03:14:58.392Z,0.00
2018-09-21T03:15:58.326Z,0.00
2018-09-21T03:16:58.268Z,0.00
2018-09-21T03:17:58.205Z,0.00
2018-09-21T03:18:58.146Z,0.00
2018-09-21T03:19:58.080Z,0.00
2018-09-21T03:20:58.021Z,0.00
2018-09-21T03:21:57.960Z,0.00
2018-09-21T03:22:57.902Z,0.00
2018-09-21T03:23:57.840Z,0.00
2018-09-21T03:24:57.779Z,0.00
2018-09-21T03:25:57.720Z,0.00
2018-09-21T03:26:57.659Z,0.00
2018-09-21T03:27:57.605Z,0.00
2018-09-21T03:28:57.543Z,0.00
2018-09-21T03:29:57.476Z,0.00
2018-09-21T03:30:57.418Z,0.00
2018-09-21T03:31:57.353Z,0.00
2018-09-21T03:32:57.290Z,0.00
2018-09-21T03:33:57.231Z,0.00
2018-09-21T03:34:57.172Z,0.00
2018-09-21T03:35:57.108Z,0.00
2018-09-21T03:36:57.048Z,0.00
2018-09-21T03:37:56.986Z,0.00
2018-09-21T03:38:56.927Z,0.00
2018-09-21T03:39:56.865Z,0.00
2018-09-21T03:40:56.807Z,0.00
2018-09-21T03:41:56.745Z,0.00
2018-09-21T03:42:56.685Z,0.00
2018-09-21T03:43:56.625Z,0.00
2018-09-21T03:44:56.561Z,0.00
2018-09-21T03:45:56.501Z,0.00
2018-09-21T03:46:56.441Z,0.00
2018-09-21T03:47:56.379Z,0.00
2018-09-21T03:48:56.317Z,0.00
2018-09-21T03:49:56.256Z,0.00
2018-09-21T03:50:56.194Z,0.00
2018-09-21T03:51:56.135Z,0.00
2018-09-21T03:52:56.075Z,0.00
2018-09-21T03:53:56.013Z,0.00
2018-09-21T03:54:55.952Z,0.00
2018-09-21T03:55:55.892Z,0.00
2018-09-21T03:56:55.829Z,0.00
2018-09-21T03:57:55.768Z,0.00
2018-09-21T03:58:55.710Z,0.00
2018-09-21T03:59:55.649Z,0.00
2018-09-21T04:00:55.615Z,0.00
2018-09-21T04:01:55.529Z,0.00
2018-09-21T04:02:55.466Z,0.00
2018-09-21T04:03:55.411Z,0.00
2018-09-21T04:04:55.343Z,0.00
2018-09-21T04:05:55.281Z,0.00
2018-09-21T04:06:55.219Z,0.00
2018-09-21T04:07:55.159Z,0.00
2018-09-21T04:08:55.096Z,0.00
2018-09-21T04:09:55.039Z,0.00
2018-09-21T04:10:54.976Z,0.00
2018-09-21T04:11:54.916Z,0.00
2018-09-21T04:12:54.855Z,0.00
2018-09-21T04:13:54.794Z,0.00
2018-09-21T04:14:54.735Z,0.00
2018-09-21T04:15:54.673Z,0.00
2018-09-21T04:16:54.612Z,0.00
2018-09-21T04:17:54.552Z,0.00
2018-09-21T04:18:54.490Z,0.00
2018-09-21T04:19:54.428Z,0.00
2018-09-21T04:20:54.367Z,0.00
2018-09-21T04:21:54.305Z,0.00
2018-09-21T04:22:54.291Z,0.00
2018-09-21T04:23:54.183Z,0.00
2018-09-21T04:24:54.124Z,0.00
2018-09-21T04:25:54.065Z,0.00
2018-09-21T04:26:54.005Z,0.00
2018-09-21T04:27:53.939Z,0.00
2018-09-21T04:28:53.893Z,0.00
2018-09-21T04:29:53.820Z,0.00
2018-09-21T04:30:53.759Z,0.00
2018-09-21T04:31:53.696Z,0.00
2018-09-21T04:32:53.635Z,0.00
2018-09-21T04:33:53.576Z,0.00
2018-09-21T04:34:53.518Z,0.00
2018-09-21T04:35:53.499Z,0.00
2018-09-21T04:36:53.392Z,0.00
2018-09-21T04:37:53.329Z,4.00
2018-09-21T04:38:53.269Z,4.00
2018-09-21T04:39:53.205Z,0.00
2018-09-21T04:40:53.148Z,4.00
2018-09-21T04:41:53.086Z,4.00
2018-09-21T04:42:53.027Z,4.00
2018-09-21T04:43:52.965Z,8.00
2018-09-21T04:44:52.906Z,8.00
2018-09-21T04:45:52.918Z,8.00
2018-09-21T04:46:52.782Z,8.00
2018-09-21T04:47:52.719Z,12.00
2018-09-21T04:48:52.660Z,12.00
2018-09-21T04:49:52.598Z,16.00
2018-09-21T04:50:52.538Z,16.00
2018-09-21T04:51:52.475Z,16.00
2018-09-21T04:52:52.416Z,24.00
2018-09-21T04:53:52.353Z,24.00
2018-09-21T04:54:52.294Z,28.00
2018-09-21T04:55:52.231Z,32.00
2018-09-21T04:56:52.172Z,40.00
2018-09-21T04:57:52.110Z,44.00
2018-09-21T04:58:52.049Z,48.00
2018-09-21T04:59:51.988Z,56.00
2018-09-21T05:00:51.924Z,60.00
2018-09-21T05:01:51.866Z,68.00
2018-09-21T05:02:51.806Z,72.00
2018-09-21T05:03:51.743Z,80.00
2018-09-21T05:04:51.683Z,84.00
2018-09-21T05:05:51.622Z,92.00
2018-09-21T05:06:51.559Z,104.00
2018-09-21T05:07:51.498Z,112.00
2018-09-21T05:08:51.439Z,120.00
2018-09-21T05:09:51.378Z,132.00
2018-09-21T05:10:51.317Z,140.00
2018-09-21T05:11:51.257Z,152.00
2018-09-21T05:12:51.194Z,164.00
2018-09-21T05:13:51.189Z,172.00
2018-09-21T05:14:51.075Z,184.00
2018-09-21T05:15:51.012Z,196.00
2018-09-21T05:16:50.948Z,212.00
2018-09-21T05:17:50.890Z,224.00
2018-09-21T05:18:50.830Z,236.00
2018-09-21T05:19:50.793Z,248.00
2018-09-21T05:20:50.707Z,256.00
2018-09-21T05:21:50.645Z,268.00
2018-09-21T05:22:50.584Z,280.00
2018-09-21T05:23:50.525Z,288.00
2018-09-21T05:24:50.461Z,296.00
2018-09-21T05:25:50.400Z,312.00
2018-09-21T05:26:50.349Z,324.00
2018-09-21T05:27:50.278Z,336.00
2018-09-21T05:28:50.220Z,344.00
2018-09-21T05:29:50.159Z,360.00
2018-09-21T05:30:50.100Z,372.00
2018-09-21T05:31:50.035Z,384.00
2018-09-21T05:32:49.974Z,396.00
2018-09-21T05:33:49.915Z,408.00
2018-09-21T05:34:49.959Z,420.00
2018-09-21T05:35:49.791Z,432.00
2018-09-21T05:36:49.730Z,440.00
2018-09-21T05:37:49.671Z,452.00
2018-09-21T05:38:49.608Z,464.00
2018-09-21T05:39:49.548Z,472.00
2018-09-21T05:40:49.488Z,488.00
2018-09-21T05:41:49.427Z,496.00
2018-09-21T05:42:49.366Z,508.00
2018-09-21T05:43:49.303Z,520.00
2018-09-21T05:44:49.242Z,532.00
2018-09-21T05:45:49.181Z,544.00
2018-09-21T05:46:49.120Z,560.00
2018-09-21T05:47:49.061Z,572.00
2018-09-21T05:48:49.003Z,596.00
2018-09-21T05:49:48.938Z,608.00
2018-09-21T05:50:48.878Z,620.00
2018-09-21T05:51:48.815Z,632.00
2018-09-21T05:52:48.755Z,644.00
2018-09-21T05:53:48.696Z,656.00
2018-09-21T05:54:48.634Z,672.00
2018-09-21T05:55:48.572Z,692.00
2018-09-21T05:56:48.512Z,708.00
2018-09-21T05:57:48.459Z,720.00
2018-09-21T05:58:48.394Z,736.00
2018-09-21T05:59:48.330Z,756.00
2018-09-21T06:00:48.268Z,772.00
2018-09-21T06:01:48.208Z,788.00
2018-09-21T06:02:48.206Z,804.00
2018-09-21T06:03:48.086Z,816.00
2018-09-21T06:04:48.025Z,824.00
2018-09-21T06:05:47.964Z,836.00
2018-09-21T06:06:47.905Z,840.00
2018-09-21T06:07:47.872Z,848.00
2018-09-21T06:08:47.783Z,836.00
2018-09-21T06:09:47.723Z,828.00
2018-09-21T06:10:47.666Z,884.00
2018-09-21T06:11:47.599Z,920.00
2018-09-21T06:12:47.540Z,932.00
2018-09-21T06:13:47.517Z,944.00
2018-09-21T06:14:47.417Z,952.00
2018-09-21T06:15:47.360Z,960.00
2018-09-21T06:16:47.293Z,968.00
2018-09-21T06:17:47.234Z,972.00
2018-09-21T06:18:47.178Z,980.00
2018-09-21T06:19:47.116Z,980.00
2018-09-21T06:20:47.053Z,992.00
2018-09-21T06:21:46.994Z,992.00
2018-09-21T06:22:46.933Z,996.00
2018-09-21T06:23:46.873Z,1004.00
2018-09-21T06:24:46.815Z,1004.00
2018-09-21T06:25:46.750Z,1008.00
2018-09-21T06:26:46.691Z,1024.00
2018-09-21T06:27:46.630Z,1040.00
2018-09-21T06:28:46.617Z,1048.00
2018-09-21T06:29:46.505Z,1064.00
2018-09-21T06:30:46.448Z,1076.00
2018-09-21T06:31:46.423Z,1084.00
2018-09-21T06:32:46.328Z,1092.00
2018-09-21T06:33:46.268Z,1108.00
2018-09-21T06:34:46.204Z,1108.00
2018-09-21T06:35:46.146Z,1108.00
2018-09-21T06:36:46.084Z,1000.00
2018-09-21T06:37:46.023Z,1140.00
2018-09-21T06:38:45.963Z,1152.00
2018-09-21T06:39:45.903Z,1152.00
2018-09-21T06:40:45.857Z,1164.00
2018-09-21T06:41:45.811Z,1184.00
2018-09-21T06:42:45.725Z,1180.00
2018-09-21T06:43:45.662Z,1156.00
2018-09-21T06:44:45.600Z,1164.00
2018-09-21T06:45:45.542Z,1192.00
2018-09-21T06:46:45.480Z,1220.00
2018-09-21T06:47:45.418Z,1232.00
2018-09-21T06:48:45.359Z,1248.00
2018-09-21T06:49:45.307Z,1236.00
2018-09-21T06:50:45.238Z,1228.00
2018-09-21T06:51:45.177Z,1288.00
2018-09-21T06:52:45.118Z,1296.00
2018-09-21T06:53:45.058Z,1272.00
2018-09-21T06:54:44.999Z,1260.00
2018-09-21T06:55:44.936Z,1308.00
2018-09-21T06:56:44.877Z,1312.00
2018-09-21T06:57:44.817Z,1316.00
2018-09-21T06:58:44.760Z,1308.00
2018-09-21T06:59:44.695Z,1292.00
2018-09-21T07:00:44.640Z,1328.00
2018-09-21T07:01:44.627Z,1308.00
2018-09-21T07:02:44.518Z,1340.00
2018-09-21T07:03:44.456Z,1356.00
2018-09-21T07:04:44.395Z,1356.00
2018-09-21T07:05:44.336Z,1364.00
2018-09-21T07:06:44.278Z,1352.00
2018-09-21T07:07:44.217Z,1332.00
2018-09-21T07:08:44.155Z,1380.00
2018-09-21T07:09:44.096Z,1380.00
2018-09-21T07:10:44.038Z,1388.00
2018-09-21T07:11:43.977Z,1348.00
2018-09-21T07:12:43.913Z,1408.00
2018-09-21T07:13:43.856Z,1420.00
2018-09-21T07:14:43.796Z,1420.00
2018-09-21T07:15:43.742Z,1424.00
2018-09-21T07:16:43.677Z,1436.00
2018-09-21T07:17:43.617Z,1444.00
2018-09-21T07:18:43.559Z,1464.00
2018-09-21T07:19:43.496Z,1492.00
2018-09-21T07:20:43.437Z,1508.00
2018-09-21T07:21:43.381Z,1512.00
2018-09-21T07:22:43.320Z,1524.00
2018-09-21T07:23:43.256Z,1520.00
2018-09-21T07:24:43.193Z,1516.00
2018-09-21T07:25:43.139Z,1516.00
2018-09-21T07:26:43.075Z,1532.00
2018-09-21T07:27:43.021Z,1548.00
2018-09-21T07:28:42.962Z,1572.00
2018-09-21T07:29:42.903Z,1576.00
2018-09-21T07:30:42.840Z,1580.00
2018-09-21T07:31:42.780Z,1576.00
2018-09-21T07:32:42.721Z,1556.00
2018-09-21T07:33:42.659Z,1536.00
2018-09-21T07:34:42.602Z,1544.00
2018-09-21T07:35:42.542Z,1548.00
2018-09-21T07:36:42.480Z,1552.00
2018-09-21T07:37:42.423Z,1560.00
2018-09-21T07:38:42.360Z,1564.00
2018-09-21T07:39:42.305Z,1576.00
2018-09-21T07:40:42.244Z,1596.00
2018-09-21T07:41:42.184Z,1612.00
2018-09-21T07:42:42.123Z,1620.00
2018-09-21T07:43:42.066Z,1632.00
2018-09-21T07:44:42.066Z,1636.00
2018-09-21T07:45:41.947Z,1644.00
2018-09-21T07:46:41.888Z,1664.00
2018-09-21T07:47:41.827Z,1676.00
2018-09-21T07:48:41.769Z,1704.00
2018-09-21T07:49:41.710Z,1712.00
2018-09-21T07:50:41.653Z,1732.00
2018-09-21T07:51:41.589Z,1748.00
2018-09-21T07:52:41.531Z,1748.00
2018-09-21T07:53:41.473Z,1768.00
2018-09-21T07:54:41.412Z,1760.00
2018-09-21T07:55:41.354Z,1740.00
2018-09-21T07:56:41.297Z,1724.00
2018-09-21T07:57:41.235Z,1688.00
2018-09-21T07:58:41.181Z,1708.00
2018-09-21T07:59:41.124Z,1700.00
2018-09-21T08:00:41.086Z,1708.00
2018-09-21T08:01:41.000Z,1708.00
2018-09-21T08:02:40.942Z,1720.00
2018-09-21T08:03:40.883Z,1736.00
2018-09-21T08:04:40.824Z,1732.00
2018-09-21T08:05:40.763Z,1736.00
2018-09-21T08:06:40.717Z,1732.00
2018-09-21T08:07:40.647Z,1732.00
2018-09-21T08:08:40.590Z,1740.00
2018-09-21T08:09:40.531Z,1752.00
2018-09-21T08:10:40.472Z,1760.00
2018-09-21T08:11:40.413Z,1764.00
2018-09-21T08:12:40.357Z,1768.00
2018-09-21T08:13:40.321Z,1772.00
2018-09-21T08:14:40.237Z,1780.00
2018-09-21T08:15:40.178Z,1784.00
2018-09-21T08:16:40.119Z,1784.00
2018-09-21T08:17:40.067Z,1784.00
2018-09-21T08:18:40.015Z,1796.00
2018-09-21T08:19:39.959Z,1800.00
2018-09-21T08:20:39.887Z,1800.00
2018-09-21T08:21:39.827Z,1800.00
2018-09-21T08:22:39.775Z,1804.00
2018-09-21T08:23:39.714Z,1800.00
2018-09-21T08:24:39.654Z,1800.00
2018-09-21T08:25:39.595Z,1792.00
2018-09-21T08:26:39.588Z,1768.00
2018-09-21T08:27:39.480Z,1804.00
2018-09-21T08:28:39.423Z,1808.00
2018-09-21T08:29:39.362Z,1808.00
2018-09-21T08:30:39.306Z,1804.00
2018-09-21T08:31:39.250Z,1804.00
2018-09-21T08:32:39.190Z,1792.00
2018-09-21T08:33:39.132Z,1792.00
2018-09-21T08:34:39.090Z,1780.00
2018-09-21T08:35:39.016Z,1788.00
2018-09-21T08:36:38.959Z,1776.00
2018-09-21T08:37:38.901Z,1780.00
2018-09-21T08:38:38.841Z,1728.00
2018-09-21T08:39:38.786Z,1448.00
2018-09-21T08:40:38.727Z,1764.00
2018-09-21T08:41:38.669Z,1740.00
2018-09-21T08:42:38.612Z,1736.00
2018-09-21T08:43:38.554Z,1728.00
2018-09-21T08:44:38.496Z,1740.00
2018-09-21T08:45:38.480Z,1736.00
2018-09-21T08:46:38.384Z,1744.00
2018-09-21T08:47:38.324Z,1756.00
2018-09-21T08:48:38.269Z,1748.00
2018-09-21T08:49:38.211Z,1748.00
2018-09-21T08:50:38.152Z,1776.00
2018-09-21T08:51:38.095Z,1748.00
2018-09-21T08:52:38.042Z,1756.00
2018-09-21T08:53:37.981Z,1752.00
2018-09-21T08:54:37.922Z,1772.00
2018-09-21T08:55:37.864Z,1792.00
2018-09-21T08:56:37.807Z,1796.00
2018-09-21T08:57:37.751Z,1800.00
2018-09-21T08:58:37.695Z,1812.00
2018-09-21T08:59:37.635Z,1816.00
2018-09-21T09:00:37.578Z,1828.00
2018-09-21T09:01:37.525Z,1840.00
2018-09-21T09:02:37.522Z,1852.00
2018-09-21T09:03:37.408Z,1852.00
2018-09-21T09:04:37.348Z,1856.00
2018-09-21T09:05:37.297Z,1860.00
2018-09-21T09:06:37.237Z,1860.00
2018-09-21T09:07:37.178Z,1864.00
2018-09-21T09:08:37.122Z,1860.00
2018-09-21T09:09:37.065Z,1852.00
2018-09-21T09:10:37.010Z,1848.00
2018-09-21T09:11:36.951Z,1860.00
2018-09-21T09:12:36.894Z,1876.00
2018-09-21T09:13:36.837Z,1876.00
2018-09-21T09:14:36.792Z,1888.00
2018-09-21T09:15:36.723Z,1888.00
2018-09-21T09:16:36.666Z,1896.00
2018-09-21T09:17:36.609Z,1888.00
2018-09-21T09:18:36.554Z,1912.00
2018-09-21T09:19:36.497Z,1936.00
2018-09-21T09:20:36.441Z,1940.00
2018-09-21T09:21:36.381Z,1944.00
2018-09-21T09:22:36.332Z,1948.00
2018-09-21T09:23:36.271Z,1948.00
2018-09-21T09:24:36.253Z,1944.00
2018-09-21T09:25:36.155Z,1980.00
2018-09-21T09:26:36.099Z,2004.00
2018-09-21T09:27:36.045Z,2028.00
2018-09-21T09:28:35.990Z,2040.00
2018-09-21T09:29:35.933Z,2060.00
2018-09-21T09:30:35.874Z,2100.00
2018-09-21T09:31:35.817Z,2136.00
2018-09-21T09:32:35.764Z,2184.00
2018-09-21T09:33:35.703Z,2236.00
2018-09-21T09:34:35.646Z,2288.00
2018-09-21T09:35:35.592Z,2348.00
2018-09-21T09:36:35.534Z,2384.00
2018-09-21T09:37:35.483Z,2452.00
2018-09-21T09:38:35.431Z,2520.00
2018-09-21T09:39:35.365Z,2600.00
2018-09-21T09:40:35.313Z,2700.00
2018-09-21T09:41:35.253Z,2808.00
2018-09-21T09:42:35.215Z,2920.00
2018-09-21T09:43:35.142Z,3052.00
2018-09-21T09:44:35.085Z,3180.00
2018-09-21T09:45:35.033Z,3292.00
2018-09-21T09:46:34.970Z,3392.00
2018-09-21T09:47:34.917Z,3428.00
2018-09-21T09:48:34.999Z,3168.00
2018-09-21T09:49:34.805Z,3184.00
2018-09-21T09:50:34.749Z,3296.00
2018-09-21T09:51:34.696Z,3280.00
2018-09-21T09:52:34.638Z,3408.00
2018-09-21T09:53:34.580Z,3444.00
2018-09-21T09:54:34.533Z,3588.00
2018-09-21T09:55:34.470Z,3492.00
2018-09-21T09:56:34.418Z,3420.00
2018-09-21T09:57:34.415Z,3212.00
2018-09-21T09:58:34.355Z,3152.00
2018-09-21T09:59:34.272Z,3180.00
2018-09-21T10:00:34.403Z,3308.00
2018-09-21T10:01:34.137Z,3400.00
2018-09-21T10:02:34.084Z,3488.00
2018-09-21T10:03:34.103Z,3440.00
2018-09-21T10:04:33.974Z,3304.00
2018-09-21T10:05:33.918Z,3192.00
2018-09-21T10:06:33.861Z,3100.00
2018-09-21T10:07:33.807Z,2940.00
2018-09-21T10:08:33.751Z,2772.00
2018-09-21T10:09:33.694Z,2652.00
2018-09-21T10:10:33.641Z,2512.00
2018-09-21T10:11:33.584Z,2424.00
2018-09-21T10:12:33.528Z,2420.00
2018-09-21T10:13:33.473Z,2448.00
2018-09-21T10:14:33.418Z,2460.00
2018-09-21T10:15:33.363Z,2452.00
2018-09-21T10:16:33.368Z,2460.00
2018-09-21T10:17:33.253Z,2452.00
2018-09-21T10:18:33.198Z,2488.00
2018-09-21T10:19:33.141Z,2588.00
2018-09-21T10:20:33.121Z,2512.00
2018-09-21T10:21:33.033Z,2640.00
2018-09-21T10:22:32.982Z,2892.00
2018-09-21T10:23:32.923Z,2984.00
2018-09-21T10:24:32.919Z,2916.00
2018-09-21T10:25:32.812Z,2808.00
2018-09-21T10:26:32.758Z,2704.00
2018-09-21T10:27:32.853Z,2380.00
2018-09-21T10:28:32.961Z,2020.00
2018-09-21T10:29:32.593Z,2400.00
2018-09-21T10:30:32.556Z,2348.00
2018-09-21T10:31:32.486Z,2308.00
2018-09-21T10:32:32.426Z,2276.00
2018-09-21T10:33:32.452Z,2356.00
2018-09-21T10:34:32.337Z,2316.00
2018-09-21T10:35:32.383Z,2268.00
2018-09-21T10:36:32.208Z,2348.00
2018-09-21T10:37:32.168Z,2380.00
2018-09-21T10:38:32.105Z,2380.00
2018-09-21T10:39:32.041Z,2340.00
2018-09-21T10:40:32.036Z,2360.00
2018-09-21T10:41:31.935Z,2344.00
2018-09-21T10:42:31.897Z,2296.00
2018-09-21T10:43:31.823Z,2332.00
2018-09-21T10:44:31.772Z,2240.00
2018-09-21T10:45:31.716Z,1744.00
2018-09-21T10:46:31.659Z,1752.00
2018-09-21T10:47:31.604Z,2204.00
2018-09-21T10:48:31.548Z,2200.00
2018-09-21T10:49:31.492Z,2292.00
2018-09-21T10:50:31.439Z,2308.00
2018-09-21T10:51:31.384Z,2396.00
2018-09-21T10:52:31.329Z,2452.00
2018-09-21T10:53:31.278Z,2436.00
2018-09-21T10:54:31.234Z,2400.00
2018-09-21T10:55:31.165Z,2368.00
2018-09-21T10:56:31.110Z,2332.00
2018-09-21T10:57:31.058Z,2292.00
2018-09-21T10:58:31.011Z,2288.00
2018-09-21T10:59:30.945Z,2304.00
2018-09-21T11:00:30.930Z,2316.00
2018-09-21T11:01:30.836Z,2352.00
2018-09-21T11:02:30.782Z,2404.00
2018-09-21T11:03:30.726Z,2468.00
2018-09-21T11:04:30.679Z,2540.00
2018-09-21T11:05:30.618Z,2640.00
2018-09-21T11:06:30.564Z,2728.00
2018-09-21T11:07:30.509Z,2832.00
2018-09-21T11:08:30.453Z,2884.00
2018-09-21T11:09:30.398Z,2944.00
2018-09-21T11:10:30.345Z,2992.00
2018-09-21T11:11:30.290Z,2896.00
2018-09-21T11:12:30.237Z,2760.00
2018-09-21T11:13:30.181Z,3132.00
2018-09-21T11:14:30.131Z,3124.00
2018-09-21T11:15:30.072Z,3268.00
2018-09-21T11:16:30.017Z,3652.00
2018-09-21T11:17:29.961Z,3716.00
2018-09-21T11:18:29.907Z,3616.00
2018-09-21T11:19:29.851Z,3472.00
2018-09-21T11:20:29.796Z,3312.00
2018-09-21T11:21:29.744Z,3088.00
2018-09-21T11:22:29.690Z,2972.00
2018-09-21T11:23:29.646Z,2944.00
2018-09-21T11:24:29.580Z,2828.00
2018-09-21T11:25:29.526Z,2888.00
2018-09-21T11:26:29.473Z,2832.00
2018-09-21T11:27:29.419Z,2704.00
2018-09-21T11:28:29.367Z,2368.00
2018-09-21T11:29:29.310Z,2728.00
2018-09-21T11:30:29.253Z,2776.00
2018-09-21T11:31:29.201Z,2688.00
2018-09-21T11:32:29.142Z,2784.00
2018-09-21T11:33:29.095Z,2808.00
2018-09-21T11:34:29.035Z,2904.00
2018-09-21T11:35:28.987Z,2604.00
2018-09-21T11:36:28.926Z,2836.00
2018-09-21T11:37:28.873Z,2712.00
2018-09-21T11:38:28.818Z,2892.00
2018-09-21T11:39:29.021Z,3248.00
2018-09-21T11:40:28.708Z,3364.00
2018-09-21T11:41:28.656Z,3252.00
2018-09-21T11:42:28.603Z,3308.00
2018-09-21T11:43:28.546Z,3292.00
2018-09-21T11:44:28.492Z,3208.00
2018-09-21T11:45:28.437Z,3048.00
2018-09-21T11:46:28.381Z,2800.00
2018-09-21T11:47:28.408Z,2508.00
2018-09-21T11:48:28.272Z,2220.00
2018-09-21T11:49:28.221Z,2016.00
2018-09-21T11:50:28.165Z,1592.00
2018-09-21T11:51:28.111Z,1120.00
2018-09-21T11:52:28.055Z,1608.00
2018-09-21T11:53:28.003Z,1912.00
2018-09-21T11:54:27.947Z,1996.00
2018-09-21T11:55:27.897Z,2012.00
2018-09-21T11:56:27.838Z,2004.00
2018-09-21T11:57:27.787Z,1904.00
2018-09-21T11:58:27.730Z,1628.00
2018-09-21T11:59:27.674Z,1584.00
2018-09-21T12:00:27.619Z,1544.00
2018-09-21T12:01:27.563Z,1384.00
2018-09-21T12:02:27.511Z,1488.00
2018-09-21T12:03:27.456Z,1216.00
2018-09-21T12:04:27.403Z,1456.00
2018-09-21T12:05:27.348Z,1528.00
2018-09-21T12:06:27.292Z,1560.00
2018-09-21T12:07:27.238Z,1552.00
2018-09-21T12:08:27.185Z,1528.00
2018-09-21T12:09:27.129Z,1528.00
2018-09-21T12:10:27.112Z,1528.00
2018-09-21T12:11:27.024Z,1524.00
2018-09-21T12:12:26.965Z,1508.00
2018-09-21T12:13:26.911Z,1512.00
2018-09-21T12:14:26.856Z,1532.00
2018-09-21T12:15:26.802Z,1564.00
2018-09-21T12:16:26.745Z,1592.00
2018-09-21T12:17:26.695Z,1620.00
2018-09-21T12:18:26.637Z,1604.00
2018-09-21T12:19:26.584Z,1600.00
2018-09-21T12:20:26.532Z,1612.00
2018-09-21T12:21:26.473Z,1628.00
2018-09-21T12:22:26.418Z,1664.00
2018-09-21T12:23:26.363Z,1684.00
2018-09-21T12:24:26.312Z,1688.00
2018-09-21T12:25:26.255Z,1700.00
2018-09-21T12:26:26.199Z,1704.00
2018-09-21T12:27:26.144Z,1736.00
2018-09-21T12:28:26.090Z,1768.00
2018-09-21T12:29:26.037Z,1832.00
2018-09-21T12:30:26.012Z,1900.00
2018-09-21T12:31:25.925Z,1972.00
2018-09-21T12:32:25.870Z,2052.00
2018-09-21T12:33:25.815Z,2092.00
2018-09-21T12:34:25.762Z,2180.00